Forside
METAR-TAF:

METAR-TAF

Lufthavne :

Coral Harbour, Nunavut, Canada

Breddekreds: 64-12N, længdekreds: 083-22W, højde: 64 m

Aktuelle vejr

Denne rapport blev lavet for 1 time og 4 minutter siden, kl. 01:00 UTC
Vind 4 kt fra nordnordvest, varierende mellem nordvest og nordnordøst
Temperatur -31°C
Fugtighed 75%
Tryk 1014 hPa
Sigt: 24.1 km
Nogle få skyer i en højde af 2000 ft
iskrystaller

METAR: CYZS 240100Z 33004KT 310V020 15SM IC FEW020 M31/M34 A2993 RMK SC2 SLP150

Tid: 21:04 (02:04 UTC)

Vejrudsigter

Denne rapport blev lavet for 1 time og 26 minutter siden, kl. 00:38 UTC
Foreløbig gælder fra 24 på 01 UTC til 24 på 13 UTC
Vind 5 kt fra østnordøst
Sigt: 10 km
Nogle få skyer i en højde af 4000 ft
Fra 24 på 0300 UTC
Vind 5 kt fra østnordøst
Sigt: 10 km
Spredte skyer i en højde af 3000 ft
Midlertidig
fra 24 på 03 UTC til 24 på 13 UTC
Sigt: 10 km
Brudte skyer i en højde af 2000 ft
let sne

TAF: CYZS 240038Z 2401/2413 07005KT P6SM FEW040 FM240300 07005KT P6SM SCT030 TEMPO 2403/2413 P6SM -SN BKN020 RMK NXT FCST BY 240700Z

Vejrobservationer og prognoser fra mere end 4000 lufthavne (METAR og TAF).

De gule og røde prikker repræsenterer de meteorologiske stationer.

Flyt musen over at se navnet på stationen.

Så klik over at se vejr observationer og prognoser.

At skifte det kort: Klik på de grønne knapper med et sort kors for at zoome ind; på den grønne knap med en bindestreg for at zoome ud; eller på de grønne pile for tilstødende kort.


METAR-TAF: